PWSweather.com
Personal Weather Stations
Station Observations
SANDHURSTWX
SandhurstGB

SandhurstGB

Lat: 51.3522, Lon: -0.7739

Elevation: 272.3

Station Type: Davis VP2

www.sandhurstweather.org.uk

High Low Average
Temperature 67.3°F19.6°C 51.4°F10.8°C 58.6°F14.8°C
Dew Point 63.3°F17.4°C 48.5°F9.2°C 56.6°F13.7°C
Winds 11.5 mph 18.5 kmh Calm Calm 3.0 mph SSW4.8 kmh SSW
Wind Gusts 19.6 mph31.5 kmh -- 5.0 mph8.0 kmh
Humidity 97% 83% 93%
Pressure 29.77 in1008.1 mb 29.43 in996.6 mb -
Precipitation 0.23 in5.8 mm - -
Hour Temp Dew Point Humidity Winds Wind Gusts Pressure Precip Precip Rate Daily Precip Total
12:00 AM 59.6°F15.3°C 58.8°F14.9°C 97% 3.5 mph SW5.6 kmh SW 6.9 mph11.1 kmh 29.58 in1001.7 mb - 0.00 in0.0 mm 0.00 in0.0 mm
01:00 AM 59.1°F15.1°C 58.2°F14.6°C 97% Calm Calm -- 29.57 in1001.4 mb - 0.00 in0.0 mm 0.00 in0.0 mm
02:00 AM 58.3°F14.6°C 57.5°F14.2°C 97% 1.2 mph SSW1.9 kmh SSW 3.5 mph5.6 kmh 29.55 in1000.7 mb - 0.00 in0.0 mm 0.00 in0.0 mm
03:00 AM 57.7°F14.3°C 56.9°F13.8°C 97% Calm Calm 1.2 mph1.9 kmh 29.54 in1000.3 mb - 0.00 in0.0 mm 0.00 in0.0 mm
04:00 AM 57.7°F14.3°C 56.8°F13.8°C 97% 1.2 mph S1.9 kmh S 2.3 mph3.7 kmh 29.52 in999.7 mb - 0.00 in0.0 mm 0.00 in0.0 mm
05:00 AM 57.6°F14.2°C 56.8°F13.8°C 97% Calm Calm -- 29.50 in999.0 mb - 0.00 in0.0 mm 0.00 in0.0 mm
06:00 AM 57.2°F14.0°C 56.4°F13.6°C 97% 1.2 mph S1.9 kmh S 4.6 mph7.4 kmh 29.49 in998.6 mb - 0.00 in0.0 mm 0.00 in0.0 mm
07:00 AM 57.7°F14.3°C 56.9°F13.8°C 97% 3.5 mph SSE5.6 kmh SSE 5.8 mph9.3 kmh 29.49 in998.6 mb - 0.00 in0.0 mm 0.00 in0.0 mm
08:00 AM 59.0°F15.0°C 58.1°F14.5°C 97% 3.5 mph S5.6 kmh S 5.8 mph9.3 kmh 29.48 in998.3 mb - 0.00 in0.0 mm 0.00 in0.0 mm
09:00 AM 60.6°F15.9°C 58.9°F14.9°C 94% Calm Calm 2.3 mph3.7 kmh 29.48 in998.3 mb - 0.00 in0.0 mm 0.00 in0.0 mm
10:00 AM 59.8°F15.4°C 58.4°F14.7°C 95% 2.3 mph S3.7 kmh S 5.8 mph9.3 kmh 29.47 in998.0 mb - 0.08 in2.0 mm 0.08 in2.0 mm
11:00 AM 62.0°F16.7°C 60.8°F16.0°C 96% 1.2 mph SSW1.9 kmh SSW 4.6 mph7.4 kmh 29.46 in997.6 mb - 0.01 in0.3 mm 0.09 in2.3 mm
12:00 PM 67.3°F19.6°C 63.3°F17.4°C 87% 3.5 mph SSW5.6 kmh SSW 5.8 mph9.3 kmh 29.44 in997.0 mb - 0.00 in0.0 mm 0.09 in2.3 mm
01:00 PM 65.3°F18.5°C 60.0°F15.6°C 83% 2.3 mph SW3.7 kmh SW 5.8 mph9.3 kmh 29.43 in996.6 mb - 0.00 in0.0 mm 0.09 in2.3 mm
02:00 PM 62.0°F16.7°C 58.1°F14.5°C 87% Calm Calm -- 29.44 in997.0 mb - 0.00 in0.0 mm 0.09 in2.3 mm
03:00 PM 61.1°F16.2°C 58.2°F14.6°C 90% Calm Calm -- 29.45 in997.3 mb - 0.00 in0.0 mm 0.09 in2.3 mm
04:00 PM 61.6°F16.4°C 59.0°F15.0°C 91% Calm Calm 1.2 mph1.9 kmh 29.47 in998.0 mb - 0.00 in0.0 mm 0.09 in2.3 mm
05:00 PM 61.1°F16.2°C 58.1°F14.5°C 90% 1.2 mph WNW1.9 kmh WNW 3.5 mph5.6 kmh 29.49 in998.6 mb - 0.00 in0.0 mm 0.09 in2.3 mm
06:00 PM 57.2°F14.0°C 55.2°F12.9°C 93% 1.2 mph NW1.9 kmh NW 2.3 mph3.7 kmh 29.52 in999.7 mb - 0.13 in3.3 mm 0.22 in5.6 mm
07:00 PM 56.5°F13.6°C 54.8°F12.7°C 94% 8.1 mph NNE13.0 kmh NNE 19.6 mph31.5 kmh 29.57 in1001.4 mb - 0.01 in0.3 mm 0.23 in5.8 mm
08:00 PM 53.4°F11.9°C 51.4°F10.8°C 93% 11.5 mph NNE18.5 kmh NNE 17.3 mph27.8 kmh 29.63 in1003.4 mb - 0.00 in0.0 mm 0.23 in5.8 mm
09:00 PM 51.9°F11.1°C 49.6°F9.8°C 92% 8.1 mph NE13.0 kmh NE 15.0 mph24.1 kmh 29.68 in1005.1 mb - 0.00 in0.0 mm 0.23 in5.8 mm
10:00 PM 51.4°F10.8°C 48.6°F9.2°C 90% 4.6 mph N7.4 kmh N 8.1 mph13.0 kmh 29.73 in1006.8 mb - 0.00 in0.0 mm 0.23 in5.8 mm
11:00 PM 51.4°F10.8°C 48.5°F9.2°C 90% 3.5 mph NNW5.6 kmh NNW 5.8 mph9.3 kmh 29.77 in1008.1 mb - 0.00 in0.0 mm 0.23 in5.8 mm